Walnut Hills, Ohio
Current Conditions -  °F | °C
As of 2:53 AM on Monday 26 Jan 2015 (Local Time) from KLUK Reporting Station
Light Snow Light Snow  
Wind Chill: 15°   Ceiling: 1700
Heat Index: 26°   Visibility: 4mi
Dew Point: 22°   Wind: 13mph
Humidity: 84%   Direction: 20°NNE
Pressure: 29.78"   Gusts: NA
Location:  39.1273°N, 84.4839°W
Report Text: KLUK 260753Z AUTO 02011KT 4SM -SN BR OVC017 M03/M06 A2978 RMK AO2 UPB41E48SNE41B48 SLP087 P0001 T10331056
Loading
Personal Weather Stations






























Interactive Weather Map New forecast layout! Learn more

10-Day Weather Forecast

Advertisements
Track Severe Weather on mobile